Time;durP1;ratioP1;P1;durP2;ratioP2;P2;SDS_P1;SDS_P2;PMS_P1;PMS_P2;Temp;Humidity;BMP_temperature;BMP_pressure;BME280_temperature;BME280_humidity;BME280_pressure;Samples;Min_cycle;Max_cycle;Signal;HPM_P1;HPM_P2
2023/06/28 00:00:19;;;;;;;14.75;3.85;;;15.60;99.90;;;;;;4971954;28;20057;-76
2023/06/28 00:03:10;;;;;;;12.18;3.28;;;15.60;99.90;;;;;;4988830;28;20080;-78
2023/06/28 00:05:56;;;;;;;8.35;2.60;;;15.60;99.90;;;;;;4959298;28;20133;-76
2023/06/28 00:08:42;;;;;;;9.15;3.30;;;15.60;99.90;;;;;;4958336;28;20069;-75
2023/06/28 00:11:28;;;;;;;9.82;2.83;;;15.60;99.90;;;;;;4989241;28;20128;-75
2023/06/28 00:14:14;;;;;;;11.52;2.70;;;15.70;99.90;;;;;;4989015;28;20415;-76
2023/06/28 00:17:01;;;;;;;8.75;2.50;;;15.70;99.90;;;;;;4989071;28;20042;-76
2023/06/28 00:19:50;;;;;;;10.95;2.97;;;15.70;99.90;;;;;;4988853;28;20058;-75
2023/06/28 00:22:39;;;;;;;9.77;3.00;;;15.70;99.90;;;;;;4988963;28;20050;-76
2023/06/28 00:25:25;;;;;;;9.68;3.03;;;15.70;99.90;;;;;;4991165;28;20065;-78
2023/06/28 00:28:14;;;;;;;14.77;3.08;;;15.70;99.90;;;;;;4975718;28;20085;-76
2023/06/28 00:31:00;;;;;;;14.82;3.75;;;15.70;99.90;;;;;;4991218;28;20097;-76
2023/06/28 00:33:46;;;;;;;8.45;3.88;;;15.60;99.90;;;;;;4992094;28;20042;-75
2023/06/28 00:36:32;;;;;;;15.68;3.97;;;15.70;99.90;;;;;;4975023;28;20065;-76
2023/06/28 00:39:18;;;;;;;10.18;3.83;;;15.60;99.90;;;;;;4994005;28;20057;-77
2023/06/28 00:42:05;;;;;;;11.30;3.20;;;15.60;99.90;;;;;;4975344;28;20058;-76
2023/06/28 00:44:51;;;;;;;10.52;3.58;;;15.60;99.90;;;;;;4992940;28;20068;-76
2023/06/28 00:47:37;;;;;;;12.52;4.85;;;15.60;99.90;;;;;;4993519;28;20170;-77
2023/06/28 00:50:25;;;;;;;10.55;3.55;;;15.60;99.90;;;;;;4975038;28;20133;-76
2023/06/28 00:53:15;;;;;;;14.70;4.20;;;15.60;99.90;;;;;;4975047;28;20096;-78
2023/06/28 00:56:02;;;;;;;12.60;4.75;;;15.60;99.90;;;;;;4991808;28;20499;-76
2023/06/28 00:58:48;;;;;;;14.30;3.72;;;15.60;99.90;;;;;;4992799;28;20544;-79
2023/06/28 01:01:35;;;;;;;9.52;3.42;;;15.60;99.90;;;;;;4974607;28;20059;-78
2023/06/28 01:04:22;;;;;;;10.10;3.13;;;15.60;99.90;;;;;;4992424;28;20137;-78
2023/06/28 01:07:08;;;;;;;10.32;3.58;;;15.60;99.90;;;;;;4993078;28;20104;-75
2023/06/28 01:09:59;;;;;;;11.02;2.75;;;15.60;99.90;;;;;;4993148;28;20085;-76
2023/06/28 01:12:47;;;;;;;11.20;3.53;;;15.60;99.90;;;;;;4977690;28;20105;-75
2023/06/28 01:15:33;;;;;;;15.77;3.40;;;15.60;99.90;;;;;;4991605;28;20093;-78
2023/06/28 01:18:21;;;;;;;12.57;3.40;;;15.60;99.90;;;;;;4991743;28;20512;-78
2023/06/28 01:21:10;;;;;;;10.77;3.22;;;15.50;99.90;;;;;;4991832;28;20042;-78
2023/06/28 01:24:00;;;;;;;10.57;3.55;;;15.60;99.90;;;;;;4992383;28;20134;-76
2023/06/28 01:26:47;;;;;;;7.53;2.30;;;15.60;99.90;;;;;;4991400;28;20062;-76
2023/06/28 01:29:34;;;;;;;8.35;3.63;;;15.60;99.90;;;;;;4991659;28;20446;-75
2023/06/28 01:32:20;;;;;;;8.93;2.63;;;15.60;99.90;;;;;;4991530;28;20050;-76
2023/06/28 01:35:07;;;;;;;13.32;2.72;;;15.60;99.90;;;;;;4991660;28;20569;-74
2023/06/28 01:37:53;;;;;;;7.13;2.90;;;15.50;99.90;;;;;;4991714;28;20050;-75
2023/06/28 01:40:41;;;;;;;7.82;2.30;;;15.60;99.90;;;;;;4992592;28;20053;-75
2023/06/28 01:43:27;;;;;;;7.40;1.95;;;15.60;99.90;;;;;;4992066;28;20136;-75
2023/06/28 01:46:13;;;;;;;8.90;3.35;;;15.60;99.90;;;;;;4991825;28;20111;-76
2023/06/28 01:49:01;;;;;;;11.05;2.70;;;15.60;99.90;;;;;;4974555;28;20057;-75
2023/06/28 01:51:47;;;;;;;6.05;2.10;;;15.60;99.90;;;;;;4991478;28;20059;-75
2023/06/28 01:54:35;;;;;;;6.72;2.13;;;15.60;99.90;;;;;;4993592;28;20050;-75
2023/06/28 01:57:21;;;;;;;6.82;2.72;;;15.60;99.90;;;;;;4975101;28;20055;-78
2023/06/28 02:00:08;;;;;;;8.65;2.47;;;15.60;99.90;;;;;;4991958;28;20770;-75
2023/06/28 02:02:55;;;;;;;10.80;2.50;;;15.60;99.90;;;;;;4991034;28;20483;-76
2023/06/28 02:05:41;;;;;;;5.90;2.20;;;15.60;99.90;;;;;;4991826;28;20681;-76
2023/06/28 02:08:27;;;;;;;9.35;2.55;;;15.60;99.90;;;;;;4990005;28;20042;-75
2023/06/28 02:11:13;;;;;;;8.60;2.58;;;15.60;99.90;;;;;;4991277;28;20064;-77
2023/06/28 02:13:59;;;;;;;6.57;2.22;;;15.60;99.90;;;;;;4975267;28;20047;-77
2023/06/28 02:16:45;;;;;;;13.50;2.25;;;15.60;99.90;;;;;;4990878;28;20047;-79
2023/06/28 02:19:33;;;;;;;6.65;1.90;;;15.60;99.90;;;;;;4973144;28;20462;-77
2023/06/28 02:22:19;;;;;;;9.07;1.98;;;15.60;99.90;;;;;;4990471;28;20052;-78
2023/06/28 02:25:06;;;;;;;5.65;1.70;;;15.60;99.90;;;;;;4991953;28;20090;-76
2023/06/28 02:27:52;;;;;;;6.38;1.90;;;15.60;99.90;;;;;;4989624;28;20051;-75
2023/06/28 02:30:38;;;;;;;6.05;1.92;;;15.60;99.90;;;;;;4974072;28;20119;-75
2023/06/28 02:33:25;;;;;;;6.72;2.33;;;15.60;99.90;;;;;;4977270;28;20050;-75
2023/06/28 02:36:11;;;;;;;11.23;2.45;;;15.60;99.90;;;;;;4990050;28;20057;-76
2023/06/28 02:38:58;;;;;;;8.88;2.22;;;15.60;99.90;;;;;;4991686;28;20120;-78
2023/06/28 02:41:44;;;;;;;5.95;2.10;;;15.60;99.90;;;;;;4973903;28;20131;-75
2023/06/28 02:44:30;;;;;;;6.68;2.25;;;15.60;99.90;;;;;;4990517;28;20046;-75
2023/06/28 02:47:16;;;;;;;7.75;2.15;;;15.60;99.90;;;;;;4971529;28;20050;-75
2023/06/28 02:50:05;;;;;;;14.98;3.00;;;15.60;99.90;;;;;;4991971;28;20058;-76
2023/06/28 02:52:51;;;;;;;5.25;2.40;;;15.50;99.90;;;;;;4989511;28;20494;-76
2023/06/28 02:55:37;;;;;;;6.95;2.20;;;15.50;99.90;;;;;;4972917;28;20051;-75
2023/06/28 02:58:24;;;;;;;5.30;1.90;;;15.50;99.90;;;;;;4973519;28;20112;-77
2023/06/28 03:01:10;;;;;;;5.10;2.00;;;15.50;99.90;;;;;;4973188;28;20058;-76
2023/06/28 03:03:56;;;;;;;5.57;2.13;;;15.50;99.90;;;;;;4990299;28;20051;-75
2023/06/28 03:06:48;;;;;;;5.93;2.05;;;15.50;99.90;;;;;;4990328;28;20494;-77
2023/06/28 03:09:34;;;;;;;11.60;2.45;;;15.40;99.90;;;;;;4972822;28;20061;-75
2023/06/28 03:12:20;;;;;;;4.40;2.10;;;15.40;99.90;;;;;;4990225;28;20047;-75
2023/06/28 03:15:07;;;;;;;6.78;2.50;;;15.40;99.90;;;;;;4990488;28;20532;-75
2023/06/28 03:17:53;;;;;;;6.60;2.22;;;15.40;99.90;;;;;;4990181;28;20559;-75
2023/06/28 03:20:40;;;;;;;4.53;2.05;;;15.40;99.90;;;;;;4989741;28;20438;-75
2023/06/28 03:23:26;;;;;;;9.27;2.33;;;15.40;99.90;;;;;;4959704;28;20046;-75
2023/06/28 03:26:12;;;;;;;6.05;2.13;;;15.30;99.90;;;;;;4977016;28;20047;-76
2023/06/28 03:28:58;;;;;;;8.48;2.35;;;15.30;99.90;;;;;;4989839;28;20058;-76
2023/06/28 03:31:44;;;;;;;6.95;2.20;;;15.30;99.90;;;;;;4991666;28;20478;-75
2023/06/28 03:34:30;;;;;;;6.63;2.67;;;15.40;99.90;;;;;;4973793;28;20050;-75
2023/06/28 03:37:17;;;;;;;5.70;2.28;;;15.30;99.90;;;;;;4972610;28;20051;-76
2023/06/28 03:40:04;;;;;;;7.90;2.78;;;15.30;99.90;;;;;;4989982;28;20050;-77
2023/06/28 03:42:50;;;;;;;8.57;2.70;;;15.30;99.90;;;;;;4989862;28;20392;-77
2023/06/28 03:45:36;;;;;;;9.80;2.45;;;15.20;99.90;;;;;;4973055;28;20051;-76
2023/06/28 03:48:22;;;;;;;6.63;2.60;;;15.30;99.90;;;;;;4989847;28;20050;-77
2023/06/28 03:51:09;;;;;;;8.10;2.55;;;15.30;99.90;;;;;;4990241;28;20072;-76
2023/06/28 03:53:55;;;;;;;9.23;3.30;;;15.30;99.90;;;;;;4990519;28;20089;-76
2023/06/28 03:56:41;;;;;;;7.85;3.50;;;15.30;99.90;;;;;;4973139;28;20514;-77
2023/06/28 03:59:27;;;;;;;10.35;3.33;;;15.40;99.90;;;;;;4975339;28;20402;-78
2023/06/28 04:02:13;;;;;;;8.00;3.08;;;15.40;99.90;;;;;;4994399;28;20406;-77
2023/06/28 04:05:00;;;;;;;5.65;2.40;;;15.40;99.90;;;;;;4976547;28;20518;-76
2023/06/28 04:07:54;;;;;;;5.38;2.33;;;15.40;99.90;;;;;;4979150;28;20042;-76
2023/06/28 04:10:41;;;;;;;7.07;2.60;;;15.40;99.90;;;;;;4961750;28;20051;-76
2023/06/28 04:13:28;;;;;;;5.78;2.25;;;15.40;99.90;;;;;;4975986;28;20117;-77
2023/06/28 04:16:14;;;;;;;7.43;3.00;;;15.40;99.90;;;;;;4993538;28;20129;-78
2023/06/28 04:19:00;;;;;;;7.05;2.55;;;15.40;99.90;;;;;;4976139;28;20410;-77
2023/06/28 04:21:47;;;;;;;6.50;2.60;;;15.40;99.90;;;;;;4993738;28;20521;-76
2023/06/28 04:24:33;;;;;;;7.38;2.33;;;15.40;99.90;;;;;;4976247;28;20219;-77
2023/06/28 04:27:19;;;;;;;6.65;2.35;;;15.30;99.90;;;;;;4979063;28;20049;-77
2023/06/28 04:30:06;;;;;;;5.75;2.53;;;15.40;99.90;;;;;;4991172;28;20145;-77
2023/06/28 04:32:52;;;;;;;5.22;2.45;;;15.40;99.90;;;;;;4993223;28;20517;-77
2023/06/28 04:35:38;;;;;;;7.00;2.72;;;15.50;99.90;;;;;;4975187;28;20064;-79
2023/06/28 04:38:24;;;;;;;6.03;2.20;;;15.40;99.90;;;;;;4976484;28;20407;-76
2023/06/28 04:41:10;;;;;;;7.38;2.40;;;15.40;99.90;;;;;;4994109;28;20054;-76
2023/06/28 04:43:58;;;;;;;8.23;2.47;;;15.40;99.90;;;;;;4992013;28;20104;-78
2023/06/28 04:46:44;;;;;;;6.50;2.53;;;15.40;99.90;;;;;;4992040;28;20201;-75
2023/06/28 04:49:30;;;;;;;7.60;2.20;;;15.50;99.90;;;;;;4996793;28;20058;-77
2023/06/28 04:52:18;;;;;;;7.22;2.70;;;15.50;99.90;;;;;;4982368;28;20051;-76
2023/06/28 04:55:05;;;;;;;6.53;2.30;;;15.50;99.90;;;;;;4996219;28;20061;-77
2023/06/28 04:57:51;;;;;;;5.03;2.33;;;15.50;99.90;;;;;;4995294;28;20141;-76
2023/06/28 05:00:37;;;;;;;6.80;2.40;;;15.50;99.90;;;;;;4993911;28;20058;-78
2023/06/28 05:03:27;;;;;;;4.00;1.73;;;15.60;99.90;;;;;;4976908;28;20061;-79
2023/06/28 05:06:14;;;;;;;11.80;2.17;;;15.60;99.90;;;;;;4950442;28;20150;-75
2023/06/28 05:09:00;;;;;;;6.60;2.20;;;15.60;99.90;;;;;;4975224;28;20149;-76
2023/06/28 05:11:46;;;;;;;8.43;2.75;;;15.60;99.90;;;;;;4992084;28;20104;-75
2023/06/28 05:14:32;;;;;;;7.35;2.33;;;15.70;99.90;;;;;;4991548;28;20132;-77
2023/06/28 05:17:18;;;;;;;9.60;2.80;;;15.70;99.90;;;;;;4992657;28;20671;-76
2023/06/28 05:20:05;;;;;;;5.35;2.50;;;15.70;99.90;;;;;;4992121;28;20054;-75
2023/06/28 05:23:08;;;;;;;6.50;2.60;;;15.70;99.90;;;;;;4975187;28;20108;-76
2023/06/28 05:29:36;;;;;;;9.52;2.70;;;15.80;99.90;;;;;;4974421;28;20050;-77
2023/06/28 05:32:23;;;;;;;5.07;2.33;;;15.90;99.90;;;;;;4974326;28;20116;-77
2023/06/28 05:35:09;;;;;;;7.47;2.88;;;15.90;99.90;;;;;;4975470;28;20062;-76
2023/06/28 05:37:55;;;;;;;8.07;3.35;;;15.90;99.90;;;;;;4973959;28;20145;-75
2023/06/28 05:40:41;;;;;;;9.52;3.03;;;15.90;99.90;;;;;;4991370;28;20450;-76
2023/06/28 05:43:27;;;;;;;8.80;3.38;;;15.90;99.90;;;;;;4990542;28;20042;-77
2023/06/28 05:46:14;;;;;;;12.57;3.63;;;16.00;99.90;;;;;;4991469;28;20774;-76
2023/06/28 05:49:05;;;;;;;9.88;3.30;;;16.00;99.90;;;;;;4974254;28;20145;-78
2023/06/28 05:51:51;;;;;;;9.05;3.17;;;16.00;99.90;;;;;;4962693;28;20085;-76
2023/06/28 05:54:37;;;;;;;6.25;2.80;;;16.00;99.90;;;;;;4992071;28;20137;-76
2023/06/28 05:57:23;;;;;;;9.73;3.30;;;16.10;99.90;;;;;;4991212;28;20043;-76
2023/06/28 06:00:10;;;;;;;7.15;3.10;;;16.10;99.90;;;;;;4974743;28;20050;-76
2023/06/28 06:02:56;;;;;;;14.35;4.32;;;16.20;99.90;;;;;;4992827;28;20057;-75
2023/06/28 06:05:42;;;;;;;11.38;3.50;;;16.20;99.90;;;;;;4973730;28;20540;-80
2023/06/28 06:08:28;;;;;;;8.23;3.40;;;16.20;99.90;;;;;;4974994;28;20426;-76
2023/06/28 06:11:15;;;;;;;7.65;3.67;;;16.30;99.90;;;;;;4974046;28;20055;-77
2023/06/28 06:14:01;;;;;;;9.98;4.45;;;16.30;99.90;;;;;;4990596;28;20046;-76
2023/06/28 06:16:47;;;;;;;11.90;3.75;;;16.30;99.90;;;;;;4991513;28;20049;-75
2023/06/28 06:19:33;;;;;;;6.60;3.50;;;16.30;99.90;;;;;;4990855;28;20067;-75
2023/06/28 06:22:19;;;;;;;11.48;3.75;;;16.30;99.90;;;;;;4992305;28;20090;-75
2023/06/28 06:25:06;;;;;;;9.70;3.90;;;16.30;99.90;;;;;;4990516;28;20050;-76
2023/06/28 06:27:52;;;;;;;11.75;4.13;;;16.30;99.90;;;;;;4974106;28;20050;-78
2023/06/28 06:30:38;;;;;;;9.52;4.35;;;16.30;99.90;;;;;;4991212;28;20498;-79
2023/06/28 06:33:24;;;;;;;11.65;4.10;;;16.30;99.90;;;;;;4990765;28;20462;-78
2023/06/28 06:36:10;;;;;;;7.55;4.00;;;16.30;99.90;;;;;;4989351;28;20081;-79
2023/06/28 06:38:57;;;;;;;15.77;5.32;;;16.30;99.90;;;;;;4990050;28;20069;-79
2023/06/28 06:41:43;;;;;;;10.32;4.15;;;16.30;99.90;;;;;;4990966;28;20053;-78
2023/06/28 06:44:29;;;;;;;11.07;5.15;;;16.30;99.90;;;;;;4989696;28;20046;-79
2023/06/28 06:47:15;;;;;;;7.05;4.18;;;16.30;99.90;;;;;;4988513;28;20430;-78
2023/06/28 06:50:01;;;;;;;9.57;4.43;;;16.50;99.90;;;;;;4988700;28;20514;-78
2023/06/28 06:52:47;;;;;;;9.55;5.20;;;16.50;99.90;;;;;;4989861;28;20054;-75
2023/06/28 06:55:34;;;;;;;14.25;5.53;;;16.60;99.90;;;;;;4989866;28;20109;-79
2023/06/28 06:58:20;;;;;;;10.35;5.60;;;16.60;99.90;;;;;;4990556;28;20384;-76
2023/06/28 07:01:06;;;;;;;10.73;4.80;;;16.60;99.90;;;;;;4974064;28;20141;-78
2023/06/28 07:03:52;;;;;;;9.43;5.30;;;16.60;99.90;;;;;;4991136;28;20054;-78
2023/06/28 07:06:39;;;;;;;8.27;4.93;;;16.60;99.90;;;;;;4989244;28;20069;-76
2023/06/28 07:09:26;;;;;;;11.15;5.95;;;16.70;99.90;;;;;;4989923;28;20054;-79
2023/06/28 07:12:12;;;;;;;10.82;5.55;;;16.70;99.90;;;;;;4990546;28;20042;-75
2023/06/28 07:14:59;;;;;;;12.77;5.88;;;16.70;99.90;;;;;;4972020;28;20058;-75
2023/06/28 07:17:45;;;;;;;15.57;6.65;;;16.70;99.90;;;;;;4989834;28;20113;-75
2023/06/28 07:20:31;;;;;;;13.57;6.03;;;16.70;99.90;;;;;;4988573;28;20065;-75
2023/06/28 07:23:17;;;;;;;12.13;5.55;;;16.70;99.90;;;;;;4972049;28;20141;-75
2023/06/28 07:26:03;;;;;;;10.20;5.32;;;16.70;99.90;;;;;;4972277;28;20095;-76
2023/06/28 07:28:50;;;;;;;12.48;5.78;;;16.70;99.90;;;;;;4990517;28;20051;-79
2023/06/28 07:31:36;;;;;;;11.57;5.28;;;16.70;99.90;;;;;;4974222;28;20395;-74
2023/06/28 07:34:22;;;;;;;10.32;5.80;;;16.70;99.90;;;;;;4994172;28;20061;-75
2023/06/28 07:37:09;;;;;;;10.43;6.18;;;16.70;99.90;;;;;;4997019;28;20120;-73
2023/06/28 07:39:55;;;;;;;10.20;5.65;;;16.80;99.90;;;;;;4966625;28;20415;-74
2023/06/28 07:42:42;;;;;;;12.48;6.22;;;16.80;99.90;;;;;;4996386;28;20514;-75
2023/06/28 07:45:28;;;;;;;13.30;6.97;;;16.80;99.90;;;;;;4996550;28;20071;-73
2023/06/28 07:48:20;;;;;;;13.40;6.22;;;16.80;99.90;;;;;;4980529;28;20054;-74
2023/06/28 07:51:07;;;;;;;11.13;5.85;;;16.90;99.90;;;;;;4998414;28;20052;-74
2023/06/28 07:53:53;;;;;;;9.68;5.72;;;17.00;99.90;;;;;;4998035;28;20054;-74
2023/06/28 07:56:39;;;;;;;9.07;5.05;;;17.00;99.90;;;;;;4998633;28;20459;-74
2023/06/28 07:59:26;;;;;;;18.15;7.45;;;17.10;99.90;;;;;;4996208;28;20046;-75
2023/06/28 08:02:12;;;;;;;18.20;6.97;;;17.00;99.90;;;;;;4981732;28;20057;-75
2023/06/28 08:04:58;;;;;;;13.00;5.95;;;17.00;99.90;;;;;;4998510;28;20104;-74
2023/06/28 08:07:44;;;;;;;10.25;5.65;;;17.00;99.90;;;;;;4997095;28;20818;-75
2023/06/28 08:10:30;;;;;;;10.23;5.68;;;17.00;99.90;;;;;;4997067;28;20072;-73
2023/06/28 08:13:16;;;;;;;15.85;6.63;;;17.00;99.90;;;;;;4997249;28;20050;-73
2023/06/28 08:16:03;;;;;;;13.30;5.85;;;17.10;99.90;;;;;;4997234;28;20050;-74
2023/06/28 08:18:49;;;;;;;14.65;6.25;;;17.10;99.90;;;;;;4996459;28;20050;-74
2023/06/28 08:21:36;;;;;;;14.13;6.63;;;17.10;99.90;;;;;;4996482;28;20133;-74
2023/06/28 08:24:22;;;;;;;13.20;8.02;;;17.10;99.90;;;;;;4978376;28;20475;-74
2023/06/28 08:27:08;;;;;;;9.55;6.55;;;17.20;99.90;;;;;;4980558;28;20058;-76
2023/06/28 08:29:54;;;;;;;14.90;6.90;;;17.20;99.90;;;;;;4997800;28;20116;-74
2023/06/28 08:32:41;;;;;;;13.50;6.93;;;17.20;99.90;;;;;;4996199;28;20045;-76
2023/06/28 08:35:28;;;;;;;13.02;6.82;;;17.20;99.90;;;;;;4979835;28;20054;-76
2023/06/28 08:38:14;;;;;;;18.73;7.85;;;17.20;99.90;;;;;;4996346;28;20050;-75
2023/06/28 08:41:00;;;;;;;13.52;6.57;;;17.20;99.90;;;;;;4978772;28;20103;-75
2023/06/28 08:43:51;;;;;;;15.50;6.93;;;17.20;99.90;;;;;;4996490;28;20047;-75
2023/06/28 08:46:38;;;;;;;14.20;7.15;;;17.20;99.90;;;;;;4985369;28;20069;-75
2023/06/28 08:49:25;;;;;;;16.38;7.57;;;17.10;99.90;;;;;;4975467;28;20066;-74
2023/06/28 08:52:15;;;;;;;13.73;7.25;;;17.20;99.90;;;;;;4975538;28;20042;-75
2023/06/28 08:55:03;;;;;;;13.82;7.88;;;17.30;99.90;;;;;;4975385;28;20082;-75
2023/06/28 08:57:50;;;;;;;12.80;7.65;;;17.30;99.90;;;;;;4993718;28;20050;-73
2023/06/28 09:00:41;;;;;;;13.27;7.55;;;17.50;99.90;;;;;;4993286;28;20046;-74
2023/06/28 09:03:30;;;;;;;12.05;7.28;;;17.50;99.90;;;;;;4993398;28;20171;-74
2023/06/28 09:06:16;;;;;;;15.02;7.78;;;17.50;99.90;;;;;;4973795;28;20100;-75
2023/06/28 09:09:03;;;;;;;18.23;8.85;;;17.50;99.90;;;;;;4975529;28;20054;-76
2023/06/28 09:11:50;;;;;;;13.13;7.30;;;17.50;99.90;;;;;;4993989;28;20054;-76
2023/06/28 09:14:36;;;;;;;12.95;7.88;;;17.60;99.90;;;;;;4976878;28;20495;-76
2023/06/28 09:17:22;;;;;;;13.90;7.47;;;17.70;99.90;;;;;;4977064;28;20396;-77
2023/06/28 09:20:19;;;;;;;13.88;7.50;;;17.80;99.90;;;;;;4991969;28;20100;-77
2023/06/28 09:23:05;;;;;;;16.95;7.78;;;17.80;99.90;;;;;;4993010;28;20399;-78
2023/06/28 09:25:52;;;;;;;11.02;6.78;;;17.80;99.90;;;;;;4978125;28;20399;-78
2023/06/28 09:28:39;;;;;;;13.95;8.05;;;17.80;99.90;;;;;;4993139;28;20061;-77
2023/06/28 09:31:31;;;;;;;16.08;8.70;;;17.80;99.90;;;;;;4992433;28;20530;-75
2023/06/28 09:34:23;;;;;;;17.77;8.43;;;17.80;99.90;;;;;;4994119;28;20055;-76
2023/06/28 09:37:10;;;;;;;17.95;9.07;;;17.80;99.90;;;;;;4976117;28;20054;-75
2023/06/28 09:39:56;;;;;;;17.35;8.70;;;17.80;99.90;;;;;;4992583;28;20046;-73
2023/06/28 09:42:44;;;;;;;19.65;9.35;;;17.70;99.90;;;;;;4992960;28;20101;-75
2023/06/28 09:45:35;;;;;;;16.85;9.32;;;17.80;99.90;;;;;;4991893;28;20537;-76
2023/06/28 09:48:25;;;;;;;13.43;8.52;;;17.80;99.90;;;;;;4991481;28;20406;-76
2023/06/28 09:51:14;;;;;;;13.63;8.23;;;17.80;99.90;;;;;;4973497;28;20057;-77
2023/06/28 09:54:00;;;;;;;12.63;8.60;;;17.80;99.90;;;;;;4972796;28;20838;-74
2023/06/28 09:56:53;;;;;;;12.00;8.30;;;17.80;99.90;;;;;;4991582;28;20054;-79
2023/06/28 09:59:41;;;;;;;14.63;8.45;;;17.80;99.90;;;;;;4991715;28;20461;-77
2023/06/28 10:02:28;;;;;;;13.88;8.45;;;17.90;99.90;;;;;;4991466;28;20054;-75
2023/06/28 10:05:15;;;;;;;13.63;9.35;;;17.90;99.90;;;;;;4992569;28;20112;-78
2023/06/28 10:08:06;;;;;;;15.63;8.88;;;17.80;99.90;;;;;;4990892;28;20471;-76
2023/06/28 10:10:55;;;;;;;14.82;8.70;;;17.90;99.90;;;;;;4992132;28;20129;-78
2023/06/28 10:13:45;;;;;;;11.90;8.50;;;17.90;99.90;;;;;;4991456;28;20050;-74
2023/06/28 10:16:33;;;;;;;17.30;8.88;;;18.00;99.90;;;;;;4974523;28;20128;-78
2023/06/28 10:19:20;;;;;;;13.32;8.25;;;18.00;99.90;;;;;;4977020;28;20514;-76
2023/06/28 10:22:06;;;;;;;11.13;8.07;;;18.00;99.90;;;;;;4992464;28;20046;-78
2023/06/28 10:24:54;;;;;;;12.75;7.65;;;17.90;99.90;;;;;;4972104;28;20504;-76
2023/06/28 10:27:42;;;;;;;10.88;8.13;;;17.90;99.90;;;;;;4991311;28;20594;-78
2023/06/28 10:30:29;;;;;;;12.98;7.53;;;18.00;99.90;;;;;;4991315;28;20417;-79
2023/06/28 10:33:15;;;;;;;15.93;8.63;;;17.90;99.90;;;;;;4990455;28;20065;-74
2023/06/28 10:36:03;;;;;;;12.68;8.10;;;17.80;99.90;;;;;;4976992;28;20476;-74
2023/06/28 10:38:51;;;;;;;11.48;8.23;;;17.80;99.90;;;;;;4991074;28;20052;-73
2023/06/28 10:41:38;;;;;;;11.02;7.85;;;17.90;99.90;;;;;;4973480;28;20065;-75
2023/06/28 10:44:24;;;;;;;11.88;7.60;;;17.90;99.90;;;;;;4990367;28;20058;-75
2023/06/28 10:47:16;;;;;;;16.10;8.60;;;17.90;99.90;;;;;;4990598;28;20042;-75
2023/06/28 10:50:15;;;;;;;12.93;8.43;;;18.00;99.90;;;;;;4976311;28;20108;-76
2023/06/28 10:53:03;;;;;;;12.93;7.40;;;18.10;99.90;;;;;;4990492;28;20097;-76
2023/06/28 10:56:11;;;;;;;14.05;8.77;;;18.10;99.90;;;;;;4976444;28;20108;-76
2023/06/28 10:58:57;;;;;;;11.75;8.43;;;18.20;99.90;;;;;;4990996;28;20047;-76
2023/06/28 11:01:49;;;;;;;15.23;9.85;;;18.20;99.90;;;;;;4989137;28;20088;-75
2023/06/28 11:04:52;;;;;;;12.32;8.75;;;18.20;99.90;;;;;;4972216;28;20058;-79
2023/06/28 11:07:41;;;;;;;14.85;10.60;;;18.20;99.90;;;;;;4990348;28;20133;-76
2023/06/28 11:10:37;;;;;;;16.25;10.50;;;18.10;99.90;;;;;;4991752;28;20046;-76
2023/06/28 11:13:50;;;;;;;13.85;9.93;;;18.20;99.90;;;;;;4989905;28;20557;-76
2023/06/28 11:16:36;;;;;;;15.68;10.43;;;18.10;99.90;;;;;;4990576;28;20079;-79
2023/06/28 11:19:26;;;;;;;14.13;9.77;;;18.10;99.90;;;;;;4973213;28;20137;-76
2023/06/28 11:22:12;;;;;;;14.85;10.07;;;18.10;99.90;;;;;;4972221;28;20231;-79
2023/06/28 11:25:01;;;;;;;15.48;9.52;;;18.10;99.90;;;;;;4991595;28;20061;-76
2023/06/28 11:27:48;;;;;;;19.00;10.82;;;18.20;99.90;;;;;;4989384;28;20088;-74
2023/06/28 11:30:47;;;;;;;14.45;11.00;;;18.30;99.90;;;;;;4992217;28;20054;-75
2023/06/28 11:33:33;;;;;;;17.42;10.43;;;18.30;99.90;;;;;;4991272;28;20066;-76
2023/06/28 11:36:23;;;;;;;17.08;11.13;;;18.40;99.90;;;;;;4992461;28;20502;-75
2023/06/28 11:39:13;;;;;;;18.27;10.35;;;18.40;99.90;;;;;;4973882;28;20239;-75
2023/06/28 11:42:02;;;;;;;15.80;10.88;;;18.40;99.90;;;;;;4988383;28;20065;-75
2023/06/28 11:44:50;;;;;;;19.55;10.18;;;18.50;99.90;;;;;;4992433;28;20057;-76
2023/06/28 11:47:36;;;;;;;15.32;10.18;;;18.60;99.90;;;;;;4991122;28;20054;-73
2023/06/28 11:50:22;;;;;;;15.25;10.23;;;18.80;99.90;;;;;;4989773;28;20086;-75
2023/06/28 11:53:08;;;;;;;16.60;10.95;;;18.80;99.90;;;;;;4989919;28;20510;-74
2023/06/28 11:55:55;;;;;;;16.85;10.55;;;18.80;99.90;;;;;;4990593;28;20054;-75
2023/06/28 11:58:41;;;;;;;21.55;10.60;;;18.80;99.90;;;;;;4971939;28;20491;-76
2023/06/28 12:01:28;;;;;;;15.93;10.77;;;18.80;99.90;;;;;;4989209;28;20053;-75
2023/06/28 12:04:19;;;;;;;14.63;10.43;;;18.90;99.90;;;;;;4989190;28;20050;-76
2023/06/28 12:07:06;;;;;;;15.57;10.20;;;19.00;99.90;;;;;;4972999;28;20050;-77
2023/06/28 12:09:57;;;;;;;14.48;10.27;;;19.00;99.90;;;;;;4972542;28;20054;-77
2023/06/28 12:12:43;;;;;;;15.50;10.10;;;19.00;99.90;;;;;;4991660;28;20184;-75
2023/06/28 12:15:30;;;;;;;14.18;10.13;;;19.00;99.90;;;;;;4989366;28;20055;-76
2023/06/28 12:18:17;;;;;;;14.75;9.40;;;19.10;99.90;;;;;;4990480;28;20453;-77
2023/06/28 12:21:26;;;;;;;15.48;9.20;;;19.10;99.90;;;;;;4976811;28;20529;-75
2023/06/28 12:24:24;;;;;;;11.93;7.97;;;19.10;99.90;;;;;;4993574;28;20043;-75
2023/06/28 12:27:10;;;;;;;12.32;8.13;;;19.10;99.90;;;;;;4992683;28;20042;-75
2023/06/28 12:29:56;;;;;;;12.25;8.82;;;19.20;99.90;;;;;;4975776;28;20526;-74
2023/06/28 12:32:46;;;;;;;13.23;8.77;;;19.30;99.90;;;;;;4994015;28;20046;-75
2023/06/28 12:35:32;;;;;;;10.23;8.20;;;19.30;99.90;;;;;;4975569;28;20096;-76
2023/06/28 12:38:18;;;;;;;13.90;8.88;;;19.30;99.90;;;;;;4975976;28;20053;-75
2023/06/28 12:41:05;;;;;;;11.57;8.50;;;19.40;99.90;;;;;;4992450;28;20133;-76
2023/06/28 12:43:58;;;;;;;11.25;8.63;;;19.20;99.90;;;;;;4975555;28;20042;-76
2023/06/28 12:46:44;;;;;;;13.13;9.18;;;19.20;99.90;;;;;;4991435;28;20542;-76
2023/06/28 12:49:38;;;;;;;12.07;9.20;;;19.20;99.90;;;;;;4993148;28;20054;-75
2023/06/28 12:52:28;;;;;;;13.68;9.05;;;19.20;99.90;;;;;;4974189;28;20050;-75
2023/06/28 12:55:14;;;;;;;13.07;9.68;;;19.20;99.90;;;;;;4974728;28;20050;-75
2023/06/28 12:58:01;;;;;;;12.07;9.15;;;19.20;99.90;;;;;;4992221;28;20439;-75
2023/06/28 13:00:48;;;;;;;16.40;11.52;;;19.20;99.90;;;;;;4991678;28;20058;-75
2023/06/28 13:03:34;;;;;;;16.10;11.68;;;19.20;99.90;;;;;;4993337;28;20046;-76
2023/06/28 13:06:23;;;;;;;15.50;11.80;;;19.40;99.90;;;;;;4977012;28;20054;-76
2023/06/28 13:09:09;;;;;;;19.17;13.35;;;19.50;99.90;;;;;;4963198;28;20093;-76
2023/06/28 13:11:55;;;;;;;16.85;13.30;;;19.60;99.90;;;;;;4992781;28;20055;-75
2023/06/28 13:14:41;;;;;;;21.48;15.00;;;19.60;99.90;;;;;;4970542;28;20054;-76
2023/06/28 13:17:27;;;;;;;22.60;14.82;;;19.40;99.90;;;;;;4992894;28;20061;-76
2023/06/28 13:20:14;;;;;;;22.98;15.45;;;19.40;99.90;;;;;;4974006;28;20128;-75
2023/06/28 13:23:00;;;;;;;19.55;14.23;;;19.30;99.90;;;;;;4993119;28;20490;-75
2023/06/28 13:25:47;;;;;;;25.15;14.82;;;19.30;99.90;;;;;;4993423;28;20054;-76
2023/06/28 13:28:33;;;;;;;24.98;18.40;;;19.30;99.90;;;;;;4976896;28;20054;-77
2023/06/28 13:31:19;;;;;;;28.15;17.63;;;19.30;99.90;;;;;;4978810;28;20051;-75
2023/06/28 13:34:05;;;;;;;28.52;19.38;;;19.10;99.90;;;;;;4992112;28;20502;-78
2023/06/28 13:36:51;;;;;;;31.85;20.85;;;19.10;99.90;;;;;;4978268;28;20088;-75
2023/06/28 13:39:37;;;;;;;28.60;19.10;;;19.10;99.90;;;;;;4974764;28;20490;-75
2023/06/28 13:42:24;;;;;;;28.58;19.88;;;19.00;99.90;;;;;;4992969;28;20502;-76
2023/06/28 13:45:11;;;;;;;33.35;22.60;;;19.10;99.90;;;;;;4993648;28;20362;-79
2023/06/28 13:47:58;;;;;;;33.15;23.83;;;19.00;99.90;;;;;;4992598;28;20049;-77
2023/06/28 13:50:44;;;;;;;30.58;21.63;;;19.00;99.90;;;;;;4962394;28;20521;-78
2023/06/28 13:53:30;;;;;;;33.70;22.75;;;19.00;99.90;;;;;;4993116;28;20047;-76
2023/06/28 13:56:16;;;;;;;32.08;22.83;;;18.90;99.90;;;;;;4993118;28;20125;-76
2023/06/28 13:59:02;;;;;;;35.05;24.13;;;19.00;99.90;;;;;;4993561;28;20050;-79
2023/06/28 14:01:48;;;;;;;35.30;23.88;;;19.10;99.90;;;;;;4991101;28;20049;-76
2023/06/28 14:04:34;;;;;;;35.53;24.55;;;19.20;99.90;;;;;;4976607;28;20054;-75
2023/06/28 14:07:21;;;;;;;36.90;25.13;;;19.30;99.90;;;;;;4991535;28;20057;-74
2023/06/28 14:10:07;;;;;;;36.90;24.98;;;19.30;99.90;;;;;;4974193;28;20135;-76
2023/06/28 14:12:53;;;;;;;31.35;23.00;;;19.40;99.90;;;;;;4990500;28;20197;-76
2023/06/28 14:15:40;;;;;;;41.35;25.08;;;19.50;99.90;;;;;;4975908;28;20050;-76
2023/06/28 14:18:26;;;;;;;36.50;24.17;;;19.50;99.90;;;;;;4966815;28;20516;-79
2023/06/28 14:21:12;;;;;;;37.53;25.38;;;19.50;99.90;;;;;;4973191;28;20092;-77
2023/06/28 14:23:59;;;;;;;36.10;24.02;;;19.60;99.90;;;;;;4977190;28;20142;-77